sensor_id;sensor_type;location;lat;lon;timestamp;pressure;altitude;pressure_sealevel;temperature;humidity
37142;BME280;23041;49.816;20.092;2022-11-04T00:01:55;97274.15;;;7.80;60.89
37142;BME280;23041;49.816;20.092;2022-11-04T00:04:24;97272.91;;;7.85;60.96
37142;BME280;23041;49.816;20.092;2022-11-04T00:06:52;97280.61;;;7.90;60.98
37142;BME280;23041;49.816;20.092;2022-11-04T00:09:28;97279.72;;;8.05;61.03
37142;BME280;23041;49.816;20.092;2022-11-04T00:11:53;97272.09;;;8.16;61.03
37142;BME280;23041;49.816;20.092;2022-11-04T00:14:37;97275.01;;;8.25;61.05
37142;BME280;23041;49.816;20.092;2022-11-04T00:17:04;97263.98;;;8.29;61.07
37142;BME280;23041;49.816;20.092;2022-11-04T00:19:51;97277.45;;;8.31;61.08
37142;BME280;23041;49.816;20.092;2022-11-04T00:22:38;97268.41;;;8.23;61.08
37142;BME280;23041;49.816;20.092;2022-11-04T00:25:24;97257.20;;;8.17;61.10
37142;BME280;23041;49.816;20.092;2022-11-04T00:31:03;97248.86;;;8.24;61.12
37142;BME280;23041;49.816;20.092;2022-11-04T00:33:50;97250.22;;;8.24;61.14
37142;BME280;23041;49.816;20.092;2022-11-04T00:36:17;97248.00;;;8.19;61.14
37142;BME280;23041;49.816;20.092;2022-11-04T00:38:44;97243.98;;;8.15;61.15
37142;BME280;23041;49.816;20.092;2022-11-04T00:41:10;97231.25;;;7.89;61.20
37142;BME280;23041;49.816;20.092;2022-11-04T00:43:57;97218.59;;;7.87;61.26
37142;BME280;23041;49.816;20.092;2022-11-04T00:46:25;97209.16;;;7.92;61.34
37142;BME280;23041;49.816;20.092;2022-11-04T00:48:52;97204.14;;;7.98;61.41
37142;BME280;23041;49.816;20.092;2022-11-04T00:51:19;97207.38;;;8.01;61.48
37142;BME280;23041;49.816;20.092;2022-11-04T00:53:46;97205.23;;;8.01;61.49
37142;BME280;23041;49.816;20.092;2022-11-04T00:56:12;97208.23;;;7.98;61.57
37142;BME280;23041;49.816;20.092;2022-11-04T00:58:39;97203.01;;;7.96;61.62
37142;BME280;23041;49.816;20.092;2022-11-04T01:01:09;97205.00;;;8.03;61.71
37142;BME280;23041;49.816;20.092;2022-11-04T01:03:37;97203.09;;;8.00;61.77
37142;BME280;23041;49.816;20.092;2022-11-04T01:06:04;97191.87;;;7.87;61.80
37142;BME280;23041;49.816;20.092;2022-11-04T01:08:31;97190.86;;;7.89;61.88
37142;BME280;23041;49.816;20.092;2022-11-04T01:11:02;97185.16;;;7.91;61.98
37142;BME280;23041;49.816;20.092;2022-11-04T01:13:29;97192.41;;;7.90;62.04
37142;BME280;23041;49.816;20.092;2022-11-04T01:15:57;97178.59;;;7.97;62.12
37142;BME280;23041;49.816;20.092;2022-11-04T01:18:25;97176.45;;;7.96;62.19
37142;BME280;23041;49.816;20.092;2022-11-04T01:20:51;97162.14;;;7.80;62.26
37142;BME280;23041;49.816;20.092;2022-11-04T01:23:18;97157.66;;;7.90;62.33
37142;BME280;23041;49.816;20.092;2022-11-04T01:25:44;97162.11;;;8.00;62.39
37142;BME280;23041;49.816;20.092;2022-11-04T01:28:10;97171.34;;;8.06;62.42
37142;BME280;23041;49.816;20.092;2022-11-04T01:30:37;97171.94;;;8.06;62.42
37142;BME280;23041;49.816;20.092;2022-11-04T01:33:04;97159.39;;;8.16;62.43
37142;BME280;23041;49.816;20.092;2022-11-04T01:35:30;97161.31;;;8.28;62.47
37142;BME280;23041;49.816;20.092;2022-11-04T01:37:57;97153.70;;;8.27;62.47
37142;BME280;23041;49.816;20.092;2022-11-04T01:40:23;97151.30;;;8.29;62.46
37142;BME280;23041;49.816;20.092;2022-11-04T01:42:50;97149.00;;;8.28;62.45
37142;BME280;23041;49.816;20.092;2022-11-04T01:45:19;97147.11;;;8.25;62.42
37142;BME280;23041;49.816;20.092;2022-11-04T01:48:00;97140.88;;;8.24;62.41
37142;BME280;23041;49.816;20.092;2022-11-04T01:50:31;97141.58;;;8.28;62.44
37142;BME280;23041;49.816;20.092;2022-11-04T01:53:01;97141.46;;;8.24;62.43
37142;BME280;23041;49.816;20.092;2022-11-04T01:55:40;97136.69;;;8.19;62.44
37142;BME280;23041;49.816;20.092;2022-11-04T01:58:12;97138.74;;;8.15;62.45
37142;BME280;23041;49.816;20.092;2022-11-04T02:00:39;97135.83;;;8.14;62.46
37142;BME280;23041;49.816;20.092;2022-11-04T02:03:14;97127.69;;;7.95;62.51
37142;BME280;23041;49.816;20.092;2022-11-04T02:05:42;97126.05;;;7.89;62.56
37142;BME280;23041;49.816;20.092;2022-11-04T02:08:10;97122.13;;;7.90;62.63
37142;BME280;23041;49.816;20.092;2022-11-04T02:10:39;97123.83;;;7.84;62.66
37142;BME280;23041;49.816;20.092;2022-11-04T02:13:06;97115.36;;;7.87;62.69
37142;BME280;23041;49.816;20.092;2022-11-04T02:21:54;97106.58;;;7.87;62.80
37142;BME280;23041;49.816;20.092;2022-11-04T02:27:29;97103.08;;;7.78;62.83
37142;BME280;23041;49.816;20.092;2022-11-04T02:47:02;97090.49;;;7.65;63.27
37142;BME280;23041;49.816;20.092;2022-11-04T02:49:39;97093.16;;;7.68;63.35
37142;BME280;23041;49.816;20.092;2022-11-04T02:52:11;97092.98;;;7.67;63.36
37142;BME280;23041;49.816;20.092;2022-11-04T02:54:59;97095.54;;;7.66;63.41
37142;BME280;23041;49.816;20.092;2022-11-04T02:57:34;97096.72;;;7.65;63.43
37142;BME280;23041;49.816;20.092;2022-11-04T03:00:07;97102.87;;;7.69;63.46
37142;BME280;23041;49.816;20.092;2022-11-04T03:02:59;97085.53;;;7.60;63.50
37142;BME280;23041;49.816;20.092;2022-11-04T03:05:33;97086.54;;;7.50;63.57
37142;BME280;23041;49.816;20.092;2022-11-04T03:08:09;97080.75;;;7.56;63.69
37142;BME280;23041;49.816;20.092;2022-11-04T03:10:45;97077.52;;;7.61;63.76
37142;BME280;23041;49.816;20.092;2022-11-04T03:13:26;97073.20;;;7.79;63.83
37142;BME280;23041;49.816;20.092;2022-11-04T03:15:58;97071.23;;;7.88;63.86
37142;BME280;23041;49.816;20.092;2022-11-04T03:19:00;97073.55;;;7.90;63.88
37142;BME280;23041;49.816;20.092;2022-11-04T03:21:38;97070.73;;;8.01;63.93
37142;BME280;23041;49.816;20.092;2022-11-04T03:24:06;97076.45;;;8.07;63.95
37142;BME280;23041;49.816;20.092;2022-11-04T03:26:41;97077.33;;;8.04;63.93
37142;BME280;23041;49.816;20.092;2022-11-04T03:29:20;97072.88;;;8.02;63.92
37142;BME280;23041;49.816;20.092;2022-11-04T03:34:29;97083.63;;;8.01;63.87
37142;BME280;23041;49.816;20.092;2022-11-04T03:36:56;97085.59;;;8.00;63.92
37142;BME280;23041;49.816;20.092;2022-11-04T03:39:23;97084.05;;;7.99;63.93
37142;BME280;23041;49.816;20.092;2022-11-04T03:41:52;97083.19;;;7.94;63.96
37142;BME280;23041;49.816;20.092;2022-11-04T03:44:23;97070.36;;;7.75;64.01
37142;BME280;23041;49.816;20.092;2022-11-04T03:46:53;97069.94;;;7.76;64.04
37142;BME280;23041;49.816;20.092;2022-11-04T03:49:21;97060.91;;;7.79;64.07
37142;BME280;23041;49.816;20.092;2022-11-04T03:51:49;97072.43;;;7.79;64.10
37142;BME280;23041;49.816;20.092;2022-11-04T03:54:16;97067.82;;;7.84;64.10
37142;BME280;23041;49.816;20.092;2022-11-04T04:02:26;97050.48;;;7.83;64.12
37142;BME280;23041;49.816;20.092;2022-11-04T04:04:58;97039.71;;;7.75;64.13
37142;BME280;23041;49.816;20.092;2022-11-04T04:07:36;97040.99;;;7.71;64.13
37142;BME280;23041;49.816;20.092;2022-11-04T04:10:28;97040.83;;;7.62;64.13
37142;BME280;23041;49.816;20.092;2022-11-04T04:13:22;97030.30;;;7.44;64.15
37142;BME280;23041;49.816;20.092;2022-11-04T04:18:37;97035.87;;;7.21;64.22
37142;BME280;23041;49.816;20.092;2022-11-04T04:21:07;97019.88;;;6.91;64.32
37142;BME280;23041;49.816;20.092;2022-11-04T04:23:35;97017.06;;;6.87;64.41
37142;BME280;23041;49.816;20.092;2022-11-04T04:26:22;97008.11;;;6.86;64.50
37142;BME280;23041;49.816;20.092;2022-11-04T04:29:09;97009.52;;;6.94;64.58
37142;BME280;23041;49.816;20.092;2022-11-04T04:31:37;97008.24;;;6.99;64.68
37142;BME280;23041;49.816;20.092;2022-11-04T04:34:24;97008.83;;;6.98;64.73
37142;BME280;23041;49.816;20.092;2022-11-04T04:39:28;97005.59;;;6.95;64.83
37142;BME280;23041;49.816;20.092;2022-11-04T04:42:14;97001.15;;;6.93;64.88
37142;BME280;23041;49.816;20.092;2022-11-04T04:45:01;96994.05;;;6.88;64.90
37142;BME280;23041;49.816;20.092;2022-11-04T04:47:33;96980.81;;;6.78;64.96
37142;BME280;23041;49.816;20.092;2022-11-04T04:50:01;96985.91;;;6.76;65.00
37142;BME280;23041;49.816;20.092;2022-11-04T04:52:37;96965.13;;;6.54;65.03
37142;BME280;23041;49.816;20.092;2022-11-04T04:55:02;96952.13;;;6.42;65.10
37142;BME280;23041;49.816;20.092;2022-11-04T04:57:28;96958.16;;;6.42;65.18
37142;BME280;23041;49.816;20.092;2022-11-04T04:59:55;96959.34;;;6.41;65.25
37142;BME280;23041;49.816;20.092;2022-11-04T05:02:21;96954.48;;;6.40;65.32
37142;BME280;23041;49.816;20.092;2022-11-04T05:04:47;96957.54;;;6.54;65.40
37142;BME280;23041;49.816;20.092;2022-11-04T05:07:13;96952.78;;;6.58;65.44
37142;BME280;23041;49.816;20.092;2022-11-04T05:09:40;96948.97;;;6.64;65.50
37142;BME280;23041;49.816;20.092;2022-11-04T05:12:06;96949.14;;;6.65;65.53
37142;BME280;23041;49.816;20.092;2022-11-04T05:14:33;96947.37;;;6.66;65.57
37142;BME280;23041;49.816;20.092;2022-11-04T05:16:59;96947.38;;;6.74;65.61
37142;BME280;23041;49.816;20.092;2022-11-04T05:19:25;96939.47;;;6.80;65.65
37142;BME280;23041;49.816;20.092;2022-11-04T05:21:52;96944.36;;;6.88;65.68
37142;BME280;23041;49.816;20.092;2022-11-04T05:24:18;96940.80;;;7.00;65.71
37142;BME280;23041;49.816;20.092;2022-11-04T05:26:44;96936.27;;;6.85;65.72
37142;BME280;23041;49.816;20.092;2022-11-04T05:29:11;96935.94;;;6.91;65.75
37142;BME280;23041;49.816;20.092;2022-11-04T05:31:37;96936.36;;;6.97;65.76
37142;BME280;23041;49.816;20.092;2022-11-04T05:34:09;96954.30;;;7.07;65.76
37142;BME280;23041;49.816;20.092;2022-11-04T05:36:36;96958.03;;;6.96;65.73
37142;BME280;23041;49.816;20.092;2022-11-04T05:39:03;96962.63;;;7.00;65.72
37142;BME280;23041;49.816;20.092;2022-11-04T05:41:32;96959.34;;;7.08;65.76
37142;BME280;23041;49.816;20.092;2022-11-04T05:44:03;96957.05;;;7.15;65.76
37142;BME280;23041;49.816;20.092;2022-11-04T05:46:30;96960.88;;;7.17;65.77
37142;BME280;23041;49.816;20.092;2022-11-04T05:48:56;96961.66;;;7.18;65.74
37142;BME280;23041;49.816;20.092;2022-11-04T05:51:25;96963.61;;;7.17;65.73
37142;BME280;23041;49.816;20.092;2022-11-04T05:53:52;96957.32;;;7.20;65.71
37142;BME280;23041;49.816;20.092;2022-11-04T05:56:18;96962.27;;;7.25;65.71
37142;BME280;23041;49.816;20.092;2022-11-04T05:58:45;96963.64;;;7.25;65.69
37142;BME280;23041;49.816;20.092;2022-11-04T06:01:26;96970.55;;;7.30;65.66
37142;BME280;23041;49.816;20.092;2022-11-04T06:03:59;96949.61;;;7.15;65.67
37142;BME280;23041;49.816;20.092;2022-11-04T06:06:29;96952.19;;;7.22;65.70
37142;BME280;23041;49.816;20.092;2022-11-04T06:08:57;96958.95;;;7.26;65.69
37142;BME280;23041;49.816;20.092;2022-11-04T06:11:26;96973.45;;;7.39;65.73
37142;BME280;23041;49.816;20.092;2022-11-04T06:13:54;96969.02;;;7.45;65.70
37142;BME280;23041;49.816;20.092;2022-11-04T06:16:21;96975.27;;;7.54;65.65
37142;BME280;23041;49.816;20.092;2022-11-04T06:18:50;96977.06;;;7.60;65.63
37142;BME280;23041;49.816;20.092;2022-11-04T06:21:26;96976.63;;;7.70;65.61
37142;BME280;23041;49.816;20.092;2022-11-04T06:23:55;96979.95;;;7.69;65.57
37142;BME280;23041;49.816;20.092;2022-11-04T06:26:24;96984.75;;;7.65;65.50
37142;BME280;23041;49.816;20.092;2022-11-04T06:28:51;96992.94;;;7.65;65.45
37142;BME280;23041;49.816;20.092;2022-11-04T06:31:17;96983.47;;;7.62;65.39
37142;BME280;23041;49.816;20.092;2022-11-04T06:33:45;96985.76;;;7.63;65.37
37142;BME280;23041;49.816;20.092;2022-11-04T06:36:12;96980.65;;;7.65;65.34
37142;BME280;23041;49.816;20.092;2022-11-04T06:38:40;96987.12;;;7.63;65.31
37142;BME280;23041;49.816;20.092;2022-11-04T06:41:14;96973.88;;;7.46;65.32
37142;BME280;23041;49.816;20.092;2022-11-04T06:43:37;96972.36;;;7.53;65.35
37142;BME280;23041;49.816;20.092;2022-11-04T06:46:04;96970.59;;;7.62;65.38
37142;BME280;23041;49.816;20.092;2022-11-04T06:48:31;96972.63;;;7.83;65.37
37142;BME280;23041;49.816;20.092;2022-11-04T06:50:58;96974.31;;;7.93;65.33
37142;BME280;23041;49.816;20.092;2022-11-04T06:53:26;96971.48;;;8.04;65.30
37142;BME280;23041;49.816;20.092;2022-11-04T06:56:00;96972.77;;;8.08;65.26
37142;BME280;23041;49.816;20.092;2022-11-04T06:58:27;96970.49;;;7.98;65.16
37142;BME280;23041;49.816;20.092;2022-11-04T07:00:53;96970.64;;;8.15;65.11
37142;BME280;23041;49.816;20.092;2022-11-04T07:03:19;96960.86;;;8.68;65.08
37142;BME280;23041;49.816;20.092;2022-11-04T07:05:46;96966.64;;;9.36;65.04
37142;BME280;23041;49.816;20.092;2022-11-04T07:08:12;96956.50;;;9.67;64.91
37142;BME280;23041;49.816;20.092;2022-11-04T07:10:38;96943.81;;;9.77;64.77
37142;BME280;23041;49.816;20.092;2022-11-04T07:13:05;96938.48;;;10.21;64.59
37142;BME280;23041;49.816;20.092;2022-11-04T07:15:31;96945.88;;;10.94;64.42
37142;BME280;23041;49.816;20.092;2022-11-04T07:17:58;96951.56;;;11.35;64.21
37142;BME280;23041;49.816;20.092;2022-11-04T07:20:25;96950.98;;;11.40;63.89
37142;BME280;23041;49.816;20.092;2022-11-04T07:22:53;96944.97;;;11.28;63.48
37142;BME280;23041;49.816;20.092;2022-11-04T07:25:19;96935.16;;;11.13;63.10
37142;BME280;23041;49.816;20.092;2022-11-04T07:27:46;96929.66;;;10.87;62.72
37142;BME280;23041;49.816;20.092;2022-11-04T07:30:12;96928.80;;;10.73;62.41
37142;BME280;23041;49.816;20.092;2022-11-04T07:32:39;96921.37;;;10.56;62.12
37142;BME280;23041;49.816;20.092;2022-11-04T07:35:06;96928.64;;;11.24;61.94
37142;BME280;23041;49.816;20.092;2022-11-04T07:37:34;96923.84;;;12.73;61.89
37142;BME280;23041;49.816;20.092;2022-11-04T07:40:00;96918.72;;;12.99;61.51
37142;BME280;23041;49.816;20.092;2022-11-04T07:42:27;96916.59;;;13.49;61.04
37142;BME280;23041;49.816;20.092;2022-11-04T07:44:53;96920.43;;;15.65;60.57
37142;BME280;23041;49.816;20.092;2022-11-04T07:47:20;96918.66;;;17.77;59.93
37142;BME280;23041;49.816;20.092;2022-11-04T07:49:46;96912.69;;;19.93;58.83
37142;BME280;23041;49.816;20.092;2022-11-04T07:52:13;96908.18;;;22.50;57.39
37142;BME280;23041;49.816;20.092;2022-11-04T07:54:40;96913.84;;;24.56;55.31
37142;BME280;23041;49.816;20.092;2022-11-04T07:57:06;96907.67;;;26.43;52.85
37142;BME280;23041;49.816;20.092;2022-11-04T07:59:33;96901.48;;;28.00;50.40
37142;BME280;23041;49.816;20.092;2022-11-04T08:01:59;96906.88;;;29.47;47.45
37142;BME280;23041;49.816;20.092;2022-11-04T08:04:26;96900.83;;;30.95;44.81
37142;BME280;23041;49.816;20.092;2022-11-04T08:06:52;96894.27;;;32.38;42.18
37142;BME280;23041;49.816;20.092;2022-11-04T08:09:19;96896.02;;;33.50;39.52
37142;BME280;23041;49.816;20.092;2022-11-04T08:11:48;96889.28;;;33.26;37.00
37142;BME280;23041;49.816;20.092;2022-11-04T08:14:14;96890.34;;;34.12;35.25
37142;BME280;23041;49.816;20.092;2022-11-04T08:16:40;96895.77;;;35.38;33.41
37142;BME280;23041;49.816;20.092;2022-11-04T08:19:07;96885.58;;;36.39;31.63
37142;BME280;23041;49.816;20.092;2022-11-04T08:21:33;96882.45;;;36.97;29.80
37142;BME280;23041;49.816;20.092;2022-11-04T08:24:00;96885.70;;;37.42;28.49
37142;BME280;23041;49.816;20.092;2022-11-04T08:26:30;96882.69;;;36.27;27.37
37142;BME280;23041;49.816;20.092;2022-11-04T08:28:56;96869.08;;;37.52;26.47
37142;BME280;23041;49.816;20.092;2022-11-04T08:31:26;96865.81;;;38.83;25.30
37142;BME280;23041;49.816;20.092;2022-11-04T08:33:55;96861.74;;;39.63;24.12
37142;BME280;23041;49.816;20.092;2022-11-04T08:36:24;96863.36;;;40.31;23.03
37142;BME280;23041;49.816;20.092;2022-11-04T08:38:56;96857.83;;;40.88;22.14
37142;BME280;23041;49.816;20.092;2022-11-04T08:41:26;96860.55;;;41.38;21.25
37142;BME280;23041;49.816;20.092;2022-11-04T08:43:58;96857.47;;;41.51;20.50
37142;BME280;23041;49.816;20.092;2022-11-04T08:46:27;96852.89;;;41.45;19.86
37142;BME280;23041;49.816;20.092;2022-11-04T08:48:54;96850.90;;;41.31;19.29
37142;BME280;23041;49.816;20.092;2022-11-04T08:51:22;96845.22;;;40.96;18.83
37142;BME280;23041;49.816;20.092;2022-11-04T08:53:50;96845.83;;;40.76;18.49
37142;BME280;23041;49.816;20.092;2022-11-04T08:56:22;96845.72;;;40.73;18.16
37142;BME280;23041;49.816;20.092;2022-11-04T08:58:51;96843.09;;;40.79;17.78
37142;BME280;23041;49.816;20.092;2022-11-04T09:01:18;96837.98;;;40.77;17.27
37142;BME280;23041;49.816;20.092;2022-11-04T09:03:46;96836.02;;;39.49;16.95
37142;BME280;23041;49.816;20.092;2022-11-04T09:06:16;96845.89;;;39.93;16.85
37142;BME280;23041;49.816;20.092;2022-11-04T09:08:44;96845.34;;;40.14;16.55
37142;BME280;23041;49.816;20.092;2022-11-04T09:11:12;96839.78;;;41.22;16.35
37142;BME280;23041;49.816;20.092;2022-11-04T09:13:39;96840.71;;;40.73;16.16
37142;BME280;23041;49.816;20.092;2022-11-04T09:16:08;96834.55;;;39.03;16.24
37142;BME280;23041;49.816;20.092;2022-11-04T09:18:36;96833.64;;;37.58;16.54
37142;BME280;23041;49.816;20.092;2022-11-04T09:21:04;96825.42;;;37.12;16.87
37142;BME280;23041;49.816;20.092;2022-11-04T09:23:31;96825.33;;;37.77;17.00
37142;BME280;23041;49.816;20.092;2022-11-04T09:26:06;96821.72;;;38.04;16.99
37142;BME280;23041;49.816;20.092;2022-11-04T09:28:32;96818.20;;;37.91;16.97
37142;BME280;23041;49.816;20.092;2022-11-04T09:30:58;96817.48;;;38.05;16.91
37142;BME280;23041;49.816;20.092;2022-11-04T09:33:25;96814.95;;;38.40;16.80
37142;BME280;23041;49.816;20.092;2022-11-04T09:35:55;96817.09;;;39.29;16.63
37142;BME280;23041;49.816;20.092;2022-11-04T09:38:23;96813.00;;;40.64;16.27
37142;BME280;23041;49.816;20.092;2022-11-04T09:40:50;96805.42;;;41.85;15.77
37142;BME280;23041;49.816;20.092;2022-11-04T09:46:04;96793.58;;;42.81;14.93
37142;BME280;23041;49.816;20.092;2022-11-04T09:48:33;96794.48;;;42.02;14.61
37142;BME280;23041;49.816;20.092;2022-11-04T09:51:04;96790.89;;;41.43;14.55
37142;BME280;23041;49.816;20.092;2022-11-04T09:53:46;96786.61;;;41.83;14.52
37142;BME280;23041;49.816;20.092;2022-11-04T09:56:24;96782.54;;;43.20;14.21
37142;BME280;23041;49.816;20.092;2022-11-04T09:58:56;96787.24;;;44.37;13.88
37142;BME280;23041;49.816;20.092;2022-11-04T10:01:38;96784.98;;;44.92;13.28
37142;BME280;23041;49.816;20.092;2022-11-04T10:04:38;96781.89;;;45.83;12.97
37142;BME280;23041;49.816;20.092;2022-11-04T10:09:52;96771.96;;;47.29;12.04
37142;BME280;23041;49.816;20.092;2022-11-04T10:17:53;96765.88;;;48.31;11.26
37142;BME280;23041;49.816;20.092;2022-11-04T10:23:22;96754.08;;;45.34;11.38
37142;BME280;23041;49.816;20.092;2022-11-04T10:26:18;96754.66;;;45.63;11.57
37142;BME280;23041;49.816;20.092;2022-11-04T10:28:55;96754.98;;;47.07;11.41
37142;BME280;23041;49.816;20.092;2022-11-04T10:31:21;96750.56;;;48.26;11.08
37142;BME280;23041;49.816;20.092;2022-11-04T10:33:54;96750.98;;;48.76;10.73
37142;BME280;23041;49.816;20.092;2022-11-04T10:36:23;96751.20;;;49.11;10.54
37142;BME280;23041;49.816;20.092;2022-11-04T10:38:52;96747.81;;;49.63;10.35
37142;BME280;23041;49.816;20.092;2022-11-04T10:44:09;96736.73;;;49.31;10.03
37142;BME280;23041;49.816;20.092;2022-11-04T10:52:15;96727.95;;;47.53;10.17
37142;BME280;23041;49.816;20.092;2022-11-04T10:54:44;96724.91;;;46.87;10.35
37142;BME280;23041;49.816;20.092;2022-11-04T10:57:16;96729.84;;;46.31;10.49
37142;BME280;23041;49.816;20.092;2022-11-04T11:05:22;96736.94;;;44.22;11.11
37142;BME280;23041;49.816;20.092;2022-11-04T11:07:51;96728.42;;;43.22;11.35
37142;BME280;23041;49.816;20.092;2022-11-04T11:10:22;96727.78;;;42.32;11.69
37142;BME280;23041;49.816;20.092;2022-11-04T11:13:02;96732.97;;;41.14;12.04
37142;BME280;23041;49.816;20.092;2022-11-04T11:15:36;96729.58;;;39.61;12.40
37142;BME280;23041;49.816;20.092;2022-11-04T11:18:13;96719.63;;;38.10;12.95
37142;BME280;23041;49.816;20.092;2022-11-04T11:20:42;96714.73;;;37.84;13.42
37142;BME280;23041;49.816;20.092;2022-11-04T11:23:36;96714.36;;;38.19;13.81
37142;BME280;23041;49.816;20.092;2022-11-04T11:26:10;96713.23;;;38.55;14.03
37142;BME280;23041;49.816;20.092;2022-11-04T11:28:39;96715.03;;;38.93;14.04
37142;BME280;23041;49.816;20.092;2022-11-04T11:31:11;96715.81;;;39.10;14.06
37142;BME280;23041;49.816;20.092;2022-11-04T11:33:47;96712.55;;;39.01;14.07
37142;BME280;23041;49.816;20.092;2022-11-04T11:36:32;96701.98;;;38.45;14.09
37142;BME280;23041;49.816;20.092;2022-11-04T11:39:04;96702.09;;;37.75;14.28
37142;BME280;23041;49.816;20.092;2022-11-04T11:42:05;96692.92;;;37.36;14.49
37142;BME280;23041;49.816;20.092;2022-11-04T11:44:38;96692.63;;;36.90;14.82
37142;BME280;23041;49.816;20.092;2022-11-04T11:50:15;96693.16;;;35.25;15.57
37142;BME280;23041;49.816;20.092;2022-11-04T11:52:45;96693.69;;;34.42;16.04
37142;BME280;23041;49.816;20.092;2022-11-04T11:55:22;96685.45;;;33.60;16.53
37142;BME280;23041;49.816;20.092;2022-11-04T12:00:40;96685.03;;;33.33;17.30
37142;BME280;23041;49.816;20.092;2022-11-04T12:03:21;96684.64;;;33.58;17.48
37142;BME280;23041;49.816;20.092;2022-11-04T12:06:07;96678.14;;;33.36;17.62
37142;BME280;23041;49.816;20.092;2022-11-04T12:12:23;96681.00;;;33.78;17.91
37142;BME280;23041;49.816;20.092;2022-11-04T12:15:28;96672.93;;;33.75;17.92
37142;BME280;23041;49.816;20.092;2022-11-04T12:20:51;96672.22;;;32.21;18.37
37142;BME280;23041;49.816;20.092;2022-11-04T12:23:27;96674.74;;;32.26;18.65
37142;BME280;23041;49.816;20.092;2022-11-04T12:31:48;96659.80;;;32.26;19.02
37142;BME280;23041;49.816;20.092;2022-11-04T12:37:10;96665.64;;;31.51;19.43
37142;BME280;23041;49.816;20.092;2022-11-04T12:48:59;96657.45;;;29.48;20.67
37142;BME280;23041;49.816;20.092;2022-11-04T12:54:38;96655.11;;;27.65;21.90
37142;BME280;23041;49.816;20.092;2022-11-04T12:57:40;96645.20;;;27.41;22.40
37142;BME280;23041;49.816;20.092;2022-11-04T13:00:11;96643.59;;;27.00;22.73
37142;BME280;23041;49.816;20.092;2022-11-04T13:02:45;96647.81;;;26.55;23.21
37142;BME280;23041;49.816;20.092;2022-11-04T13:08:41;96643.98;;;25.85;24.18
37142;BME280;23041;49.816;20.092;2022-11-04T13:11:25;96641.14;;;25.41;24.64
37142;BME280;23041;49.816;20.092;2022-11-04T13:16:37;96650.16;;;24.56;25.55
37142;BME280;23041;49.816;20.092;2022-11-04T13:19:13;96651.00;;;24.09;26.13
37142;BME280;23041;49.816;20.092;2022-11-04T13:21:37;96642.56;;;23.88;26.69
37142;BME280;23041;49.816;20.092;2022-11-04T13:24:11;96640.69;;;23.64;27.14
37142;BME280;23041;49.816;20.092;2022-11-04T13:26:45;96644.80;;;23.49;27.50
37142;BME280;23041;49.816;20.092;2022-11-04T13:29:14;96642.31;;;23.19;27.94
37142;BME280;23041;49.816;20.092;2022-11-04T13:35:38;96645.80;;;22.67;28.72
37142;BME280;23041;49.816;20.092;2022-11-04T13:37:36;96652.10;;;22.48;29.30
37142;BME280;23041;49.816;20.092;2022-11-04T13:40:13;96655.00;;;22.17;29.79
37142;BME280;23041;49.816;20.092;2022-11-04T13:45:54;96656.55;;;21.62;30.76
37142;BME280;23041;49.816;20.092;2022-11-04T13:48:24;96659.12;;;21.48;31.19
37142;BME280;23041;49.816;20.092;2022-11-04T13:53:52;96661.30;;;21.00;32.40
37142;BME280;23041;49.816;20.092;2022-11-04T13:56:36;96665.21;;;20.91;32.89
37142;BME280;23041;49.816;20.092;2022-11-04T13:59:18;96661.48;;;20.83;33.21
37142;BME280;23041;49.816;20.092;2022-11-04T14:04:46;96668.06;;;20.44;33.88
37142;BME280;23041;49.816;20.092;2022-11-04T14:07:13;96671.77;;;20.16;34.63
37142;BME280;23041;49.816;20.092;2022-11-04T14:12:24;96669.09;;;19.82;35.35
37142;BME280;23041;49.816;20.092;2022-11-04T14:15:08;96664.19;;;19.76;35.60
37142;BME280;23041;49.816;20.092;2022-11-04T14:20:26;96669.02;;;19.46;36.51
37142;BME280;23041;49.816;20.092;2022-11-04T14:22:56;96670.53;;;19.47;36.63
37142;BME280;23041;49.816;20.092;2022-11-04T14:25:36;96675.06;;;19.45;36.61
37142;BME280;23041;49.816;20.092;2022-11-04T14:30:50;96674.97;;;18.98;37.01
37142;BME280;23041;49.816;20.092;2022-11-04T14:33:21;96673.86;;;18.78;37.41
37142;BME280;23041;49.816;20.092;2022-11-04T14:35:53;96670.34;;;18.61;37.66
37142;BME280;23041;49.816;20.092;2022-11-04T14:38:24;96668.44;;;18.51;37.98
37142;BME280;23041;49.816;20.092;2022-11-04T14:41:28;96673.88;;;18.45;38.64
37142;BME280;23041;49.816;20.092;2022-11-04T14:44:00;96673.38;;;18.41;38.71
37142;BME280;23041;49.816;20.092;2022-11-04T14:46:31;96673.12;;;18.27;39.15
37142;BME280;23041;49.816;20.092;2022-11-04T14:48:59;96676.39;;;18.20;39.49
37142;BME280;23041;49.816;20.092;2022-11-04T14:51:29;96669.80;;;18.07;39.87
37142;BME280;23041;49.816;20.092;2022-11-04T14:54:20;96674.45;;;17.94;40.27
37142;BME280;23041;49.816;20.092;2022-11-04T14:56:49;96668.11;;;17.77;40.72
37142;BME280;23041;49.816;20.092;2022-11-04T14:59:21;96663.29;;;17.61;41.29
37142;BME280;23041;49.816;20.092;2022-11-04T15:01:49;96667.66;;;17.51;41.64
37142;BME280;23041;49.816;20.092;2022-11-04T15:06:56;96660.89;;;17.31;42.39
37142;BME280;23041;49.816;20.092;2022-11-04T15:09:26;96667.92;;;17.21;42.59
37142;BME280;23041;49.816;20.092;2022-11-04T15:14:58;96677.33;;;16.92;43.22
37142;BME280;23041;49.816;20.092;2022-11-04T15:17:27;96682.68;;;17.01;43.43
37142;BME280;23041;49.816;20.092;2022-11-04T15:19:58;96672.22;;;17.01;43.54
37142;BME280;23041;49.816;20.092;2022-11-04T15:22:26;96671.84;;;16.98;43.78
37142;BME280;23041;49.816;20.092;2022-11-04T15:24:53;96673.06;;;16.91;43.98
37142;BME280;23041;49.816;20.092;2022-11-04T15:27:27;96677.27;;;16.81;44.18
37142;BME280;23041;49.816;20.092;2022-11-04T15:29:59;96673.45;;;16.73;44.46
37142;BME280;23041;49.816;20.092;2022-11-04T15:32:27;96675.88;;;16.60;44.75
37142;BME280;23041;49.816;20.092;2022-11-04T15:34:54;96667.42;;;16.43;45.06